Humidity-temperature Sensor

Selected Measurement Type: Relative Humidity

 
Relative Humidity [%]     6 entries per hour
Showing data from 3/10/2023 (00:00:00 Z) to 3/9/2023 (00:01:00 Z)
Previous Next [ Day | 3-Days | 7-Days ]
First Last
Prev [ Day | 3-Days | 7-Days ] Next
First Last

Start Time:     :
End Time:     :     
Time (in GMT) :00 :50 :40 :30 :20 :10
Previous Next [ Day | 3-Days | 7-Days ]
First Last
Prev [ Day | 3-Days | 7-Days ] Next
First Last


123 => good data
MM => data is determined as missing
-- => data not received/configured
Back to Top Back to Top
3/10/2023 00:00 to 23:10 82.68 82.83 83.38 83.24 83.28 82.81
3/9/2023 23:00 to 22:10 83.11 83.24 83.46 83.69 83.46 83.75
3/9/2023 22:00 to 21:10 83.75 83.85 84.10 84.47 84.31 84.45
3/9/2023 21:00 to 20:10 85.23 84.74 84.49 84.80 84.74 85.21
3/9/2023 20:00 to 19:10 85.31 84.88 84.70 84.96 85.03 84.49
3/9/2023 19:00 to 18:10 84.16 84.02 83.92 84.96 84.88 84.57
3/9/2023 18:00 to 17:10 84.61 84.68 84.39 84.68 84.61 84.37
3/9/2023 17:00 to 16:10 84.16 84.90 84.84 84.51 84.57 85.07
3/9/2023 16:00 to 15:10 85.42 85.39 85.07 84.84 85.23 85.64
3/9/2023 15:00 to 14:10 85.19 85.64 85.89 86.09 86.44 86.77
3/9/2023 14:00 to 13:10 86.55 85.44 84.80 84.02 83.55 84.39
3/9/2023 13:00 to 12:10 84.22 84.10 84.90 84.22 84.12 84.08
3/9/2023 12:00 to 11:10 84.96 84.80 84.76 84.20 83.87 84.88
3/9/2023 11:00 to 10:10 84.47 84.53 84.08 84.33 84.82 84.43
3/9/2023 10:00 to 9:10 85.05 84.47 84.16 84.57 84.37 84.59
3/9/2023 09:00 to 8:10 83.87 83.67 84.18 84.33 84.55 83.94
3/9/2023 08:00 to 7:10 84.00 85.21 85.85 86.50 86.85 86.40
3/9/2023 07:00 to 6:10 85.52 83.94 83.81 84.51 84.68 84.49
3/9/2023 06:00 to 5:10 84.12 84.12 83.22 83.69 84.08 84.35
3/9/2023 05:00 to 4:10 85.39 85.15 84.72 84.24 84.43 84.49
3/9/2023 04:00 to 3:10 83.92 83.09 83.13 83.30 82.85 82.64
3/9/2023 03:00 to 2:10 82.17 81.78 81.43 83.13 82.95 82.44
3/9/2023 02:00 to 1:10 82.87 83.61 84.66 85.29 85.66 85.70
3/9/2023 01:00 to 0:10 85.74 85.95 86.44 85.87 84.96 84.43